<?xml version="1.0" encoding="UTF-8" standalone="yes"?>
<gpx xmlns="http://www.topografix.com/GPX/1/1" xmlns:xsi="http://www.w3.org/2001/XMLSchema-instance" version="1.1" creator="MagicMaps Tour Explorer" xsi:schemaLocation="http://www.topografix.com/GPX/1/1 http://www.topografix.com/GPX/1/1/gpx.xsd">
  <trk>
    <name>wagendrischelhorn-s</name>
    <trkseg>
      <trkpt lat="47.599078976" lon="12.843456622">
        <ele>797.7</ele>
        <time>2021-08-19T03:20:26Z</time>
      </trkpt>
      <trkpt lat="47.599031283" lon="12.843514373">
        <ele>797.1</ele>
        <time>2021-08-19T03:21:43Z</time>
      </trkpt>
      <trkpt lat="47.599103283" lon="12.843460981">
        <ele>797.5</ele>
        <time>2021-08-19T03:23:22Z</time>
      </trkpt>
      <trkpt lat="47.598803714" lon="12.843145067">
        <ele>797.8</ele>
        <time>2021-08-19T03:25:01Z</time>
      </trkpt>
      <trkpt lat="47.598721571" lon="12.842877433">
        <ele>798.4</ele>
        <time>2021-08-19T03:25:26Z</time>
      </trkpt>
      <trkpt lat="47.597811045" lon="12.841879148">
        <ele>800.2</ele>
        <time>2021-08-19T03:27:18Z</time>
      </trkpt>
      <trkpt lat="47.596128881" lon="12.838820675">
        <ele>804.1</ele>
        <time>2021-08-19T03:30:46Z</time>
      </trkpt>
      <trkpt lat="47.596270870" lon="12.838760577">
        <ele>804.2</ele>
        <time>2021-08-19T03:32:10Z</time>
      </trkpt>
      <trkpt lat="47.596671190" lon="12.838030597">
        <ele>808.2</ele>
        <time>2021-08-19T03:33:30Z</time>
      </trkpt>
      <trkpt lat="47.597017195" lon="12.837543860">
        <ele>817.5</ele>
        <time>2021-08-19T03:34:23Z</time>
      </trkpt>
      <trkpt lat="47.597383149" lon="12.837309753">
        <ele>825.8</ele>
        <time>2021-08-19T03:35:10Z</time>
      </trkpt>
      <trkpt lat="47.597194137" lon="12.837158209">
        <ele>831.4</ele>
        <time>2021-08-19T03:35:45Z</time>
      </trkpt>
      <trkpt lat="47.597044185" lon="12.836724948">
        <ele>837.7</ele>
        <time>2021-08-19T03:36:20Z</time>
      </trkpt>
      <trkpt lat="47.596966065" lon="12.836019192">
        <ele>847.0</ele>
        <time>2021-08-19T03:37:12Z</time>
      </trkpt>
      <trkpt lat="47.596534230" lon="12.834967347">
        <ele>863.6</ele>
        <time>2021-08-19T03:38:56Z</time>
      </trkpt>
      <trkpt lat="47.596588628" lon="12.834813371">
        <ele>865.3</ele>
        <time>2021-08-19T03:39:56Z</time>
      </trkpt>
      <trkpt lat="47.596526938" lon="12.834792752">
        <ele>865.7</ele>
        <time>2021-08-19T03:40:21Z</time>
      </trkpt>
      <trkpt lat="47.596460888" lon="12.834486142">
        <ele>871.3</ele>
        <time>2021-08-19T03:41:00Z</time>
      </trkpt>
      <trkpt lat="47.596490393" lon="12.834276929">
        <ele>874.1</ele>
        <time>2021-08-19T03:41:22Z</time>
      </trkpt>
      <trkpt lat="47.596917199" lon="12.833527755">
        <ele>889.6</ele>
        <time>2021-08-19T03:42:47Z</time>
      </trkpt>
      <trkpt lat="47.597292205" lon="12.833034564">
        <ele>901.9</ele>
        <time>2021-08-19T03:43:46Z</time>
      </trkpt>
      <trkpt lat="47.597274100" lon="12.832945297">
        <ele>905.1</ele>
        <time>2021-08-19T03:44:02Z</time>
      </trkpt>
      <trkpt lat="47.597193886" lon="12.832961893">
        <ele>908.4</ele>
        <time>2021-08-19T03:44:18Z</time>
      </trkpt>
      <trkpt lat="47.597196903" lon="12.832842954">
        <ele>911.4</ele>
        <time>2021-08-19T03:44:34Z</time>
      </trkpt>
      <trkpt lat="47.597824624" lon="12.832145160">
        <ele>929.8</ele>
        <time>2021-08-19T03:46:15Z</time>
      </trkpt>
      <trkpt lat="47.597940462" lon="12.832100484">
        <ele>933.0</ele>
        <time>2021-08-19T03:46:32Z</time>
      </trkpt>
      <trkpt lat="47.598178340" lon="12.832255634">
        <ele>938.9</ele>
        <time>2021-08-19T03:47:03Z</time>
      </trkpt>
      <trkpt lat="47.598261908" lon="12.831937708">
        <ele>945.0</ele>
        <time>2021-08-19T03:47:35Z</time>
      </trkpt>
      <trkpt lat="47.598266685" lon="12.831451139">
        <ele>954.3</ele>
        <time>2021-08-19T03:48:23Z</time>
      </trkpt>
      <trkpt lat="47.598026963" lon="12.830792153">
        <ele>966.7</ele>
        <time>2021-08-19T03:49:33Z</time>
      </trkpt>
      <trkpt lat="47.597737033" lon="12.830532566">
        <ele>976.2</ele>
        <time>2021-08-19T03:50:23Z</time>
      </trkpt>
      <trkpt lat="47.597329756" lon="12.830318995">
        <ele>985.4</ele>
        <time>2021-08-19T03:51:16Z</time>
      </trkpt>
      <trkpt lat="47.597088944" lon="12.829498574">
        <ele>1000.2</ele>
        <time>2021-08-19T03:52:37Z</time>
      </trkpt>
      <trkpt lat="47.596721984" lon="12.828949559">
        <ele>1012.6</ele>
        <time>2021-08-19T03:53:49Z</time>
      </trkpt>
      <trkpt lat="47.597241914" lon="12.828712100">
        <ele>1024.7</ele>
        <time>2021-08-19T03:55:00Z</time>
      </trkpt>
      <trkpt lat="47.597310562" lon="12.828617217">
        <ele>1027.7</ele>
        <time>2021-08-19T03:55:16Z</time>
      </trkpt>
      <trkpt lat="47.597666960" lon="12.828766918">
        <ele>1036.8</ele>
        <time>2021-08-19T03:56:07Z</time>
      </trkpt>
      <trkpt lat="47.597813895" lon="12.828716710">
        <ele>1039.9</ele>
        <time>2021-08-19T03:56:25Z</time>
      </trkpt>
      <trkpt lat="47.598021263" lon="12.828511605">
        <ele>1047.2</ele>
        <time>2021-08-19T03:57:04Z</time>
      </trkpt>
      <trkpt lat="47.598315552" lon="12.828609087">
        <ele>1055.6</ele>
        <time>2021-08-19T03:57:45Z</time>
      </trkpt>
      <trkpt lat="47.598375566" lon="12.828422589">
        <ele>1061.1</ele>
        <time>2021-08-19T03:58:16Z</time>
      </trkpt>
      <trkpt lat="47.598910499" lon="12.828206923">
        <ele>1069.4</ele>
        <time>2021-08-19T03:59:15Z</time>
      </trkpt>
      <trkpt lat="47.599001778" lon="12.828073818">
        <ele>1071.9</ele>
        <time>2021-08-19T03:59:33Z</time>
      </trkpt>
      <trkpt lat="47.599243093" lon="12.826806307">
        <ele>1081.7</ele>
        <time>2021-08-19T04:01:19Z</time>
      </trkpt>
      <trkpt lat="47.599463621" lon="12.826558538">
        <ele>1081.5</ele>
        <time>2021-08-19T04:01:37Z</time>
      </trkpt>
      <trkpt lat="47.599633774" lon="12.825928470">
        <ele>1083.6</ele>
        <time>2021-08-19T04:02:43Z</time>
      </trkpt>
      <trkpt lat="47.599548195" lon="12.824961031">
        <ele>1074.9</ele>
        <time>2021-08-19T04:04:30Z</time>
      </trkpt>
      <trkpt lat="47.599619692" lon="12.824705718">
        <ele>1072.8</ele>
        <time>2021-08-19T04:04:49Z</time>
      </trkpt>
      <trkpt lat="47.599607538" lon="12.824191153">
        <ele>1069.9</ele>
        <time>2021-08-19T04:05:21Z</time>
      </trkpt>
      <trkpt lat="47.599796467" lon="12.823576843">
        <ele>1068.7</ele>
        <time>2021-08-19T04:06:04Z</time>
      </trkpt>
      <trkpt lat="47.599678868" lon="12.822724068">
        <ele>1070.8</ele>
        <time>2021-08-19T04:07:27Z</time>
      </trkpt>
      <trkpt lat="47.599555068" lon="12.822563806">
        <ele>1071.2</ele>
        <time>2021-08-19T04:07:43Z</time>
      </trkpt>
      <trkpt lat="47.599376952" lon="12.821943462">
        <ele>1072.1</ele>
        <time>2021-08-19T04:08:39Z</time>
      </trkpt>
      <trkpt lat="47.598987194" lon="12.820954733">
        <ele>1084.8</ele>
        <time>2021-08-19T04:10:21Z</time>
      </trkpt>
      <trkpt lat="47.598890802" lon="12.820343357">
        <ele>1088.7</ele>
        <time>2021-08-19T04:11:12Z</time>
      </trkpt>
      <trkpt lat="47.598877978" lon="12.819865253">
        <ele>1092.6</ele>
        <time>2021-08-19T04:11:48Z</time>
      </trkpt>
      <trkpt lat="47.598646721" lon="12.818803601">
        <ele>1112.2</ele>
        <time>2021-08-19T04:14:02Z</time>
      </trkpt>
      <trkpt lat="47.598431138" lon="12.818363803">
        <ele>1125.5</ele>
        <time>2021-08-19T04:15:32Z</time>
      </trkpt>
      <trkpt lat="47.598353857" lon="12.818018133">
        <ele>1135.5</ele>
        <time>2021-08-19T04:16:38Z</time>
      </trkpt>
      <trkpt lat="47.598221423" lon="12.817956777">
        <ele>1140.1</ele>
        <time>2021-08-19T04:17:11Z</time>
      </trkpt>
      <trkpt lat="47.598151434" lon="12.817556541">
        <ele>1152.5</ele>
        <time>2021-08-19T04:18:27Z</time>
      </trkpt>
      <trkpt lat="47.597877681" lon="12.817424359">
        <ele>1162.9</ele>
        <time>2021-08-19T04:19:44Z</time>
      </trkpt>
      <trkpt lat="47.597834263" lon="12.817201316">
        <ele>1169.5</ele>
        <time>2021-08-19T04:20:33Z</time>
      </trkpt>
      <trkpt lat="47.597652376" lon="12.816887582">
        <ele>1184.2</ele>
        <time>2021-08-19T04:21:53Z</time>
      </trkpt>
      <trkpt lat="47.597502256" lon="12.816928066">
        <ele>1188.1</ele>
        <time>2021-08-19T04:22:24Z</time>
      </trkpt>
      <trkpt lat="47.597651118" lon="12.816111082">
        <ele>1210.1</ele>
        <time>2021-08-19T04:24:43Z</time>
      </trkpt>
      <trkpt lat="47.597591942" lon="12.816093061">
        <ele>1212.7</ele>
        <time>2021-08-19T04:25:01Z</time>
      </trkpt>
      <trkpt lat="47.597621027" lon="12.815899607">
        <ele>1220.2</ele>
        <time>2021-08-19T04:25:49Z</time>
      </trkpt>
      <trkpt lat="47.597561432" lon="12.815883597">
        <ele>1222.8</ele>
        <time>2021-08-19T04:26:06Z</time>
      </trkpt>
      <trkpt lat="47.597580627" lon="12.815767676">
        <ele>1227.0</ele>
        <time>2021-08-19T04:26:35Z</time>
      </trkpt>
      <trkpt lat="47.597992262" lon="12.815425945">
        <ele>1252.2</ele>
        <time>2021-08-19T04:30:29Z</time>
      </trkpt>
      <trkpt lat="47.597966110" lon="12.815326368">
        <ele>1256.8</ele>
        <time>2021-08-19T04:31:00Z</time>
      </trkpt>
      <trkpt lat="47.598018246" lon="12.815268785">
        <ele>1260.0</ele>
        <time>2021-08-19T04:31:19Z</time>
      </trkpt>
      <trkpt lat="47.597982623" lon="12.815223690">
        <ele>1264.7</ele>
        <time>2021-08-19T04:31:46Z</time>
      </trkpt>
      <trkpt lat="47.598060155" lon="12.815010874">
        <ele>1277.5</ele>
        <time>2021-08-19T04:33:07Z</time>
      </trkpt>
      <trkpt lat="47.598176915" lon="12.814985812">
        <ele>1283.7</ele>
        <time>2021-08-19T04:34:08Z</time>
      </trkpt>
      <trkpt lat="47.598233493" lon="12.815151019">
        <ele>1288.5</ele>
        <time>2021-08-19T04:35:59Z</time>
      </trkpt>
      <trkpt lat="47.598290741" lon="12.814889420">
        <ele>1296.5</ele>
        <time>2021-08-19T04:36:49Z</time>
      </trkpt>
      <trkpt lat="47.598388894" lon="12.814795375">
        <ele>1301.9</ele>
        <time>2021-08-19T04:37:20Z</time>
      </trkpt>
      <trkpt lat="47.598670609" lon="12.814726308">
        <ele>1312.7</ele>
        <time>2021-08-19T04:38:36Z</time>
      </trkpt>
      <trkpt lat="47.598852664" lon="12.814595383">
        <ele>1318.6</ele>
        <time>2021-08-19T04:39:22Z</time>
      </trkpt>
      <trkpt lat="47.599056680" lon="12.814600412">
        <ele>1323.8</ele>
        <time>2021-08-19T04:40:01Z</time>
      </trkpt>
      <trkpt lat="47.599435458" lon="12.814327749">
        <ele>1352.5</ele>
        <time>2021-08-19T04:44:05Z</time>
      </trkpt>
      <trkpt lat="47.599700661" lon="12.814352056">
        <ele>1369.9</ele>
        <time>2021-08-19T04:46:26Z</time>
      </trkpt>
      <trkpt lat="47.599492790" lon="12.814245271">
        <ele>1373.4</ele>
        <time>2021-08-19T04:47:42Z</time>
      </trkpt>
      <trkpt lat="47.599349962" lon="12.814048464">
        <ele>1385.5</ele>
        <time>2021-08-19T04:48:54Z</time>
      </trkpt>
      <trkpt lat="47.598976381" lon="12.813934470">
        <ele>1390.3</ele>
        <time>2021-08-19T04:51:25Z</time>
      </trkpt>
      <trkpt lat="47.598984428" lon="12.813933799">
        <ele>1392.9</ele>
        <time>2021-08-19T04:54:05Z</time>
      </trkpt>
      <trkpt lat="47.598948469" lon="12.813832881">
        <ele>1398.8</ele>
        <time>2021-08-19T04:54:34Z</time>
      </trkpt>
      <trkpt lat="47.598950397" lon="12.813884346">
        <ele>1400.8</ele>
        <time>2021-08-19T04:54:49Z</time>
      </trkpt>
      <trkpt lat="47.599007897" lon="12.813817794">
        <ele>1410.5</ele>
        <time>2021-08-19T04:55:49Z</time>
      </trkpt>
      <trkpt lat="47.598826932" lon="12.813823829">
        <ele>1425.3</ele>
        <time>2021-08-19T04:57:29Z</time>
      </trkpt>
      <trkpt lat="47.598741604" lon="12.813661555">
        <ele>1434.4</ele>
        <time>2021-08-19T04:58:45Z</time>
      </trkpt>
      <trkpt lat="47.598812347" lon="12.813609671">
        <ele>1438.4</ele>
        <time>2021-08-19T04:59:14Z</time>
      </trkpt>
      <trkpt lat="47.598795667" lon="12.813506741">
        <ele>1443.2</ele>
        <time>2021-08-19T04:59:55Z</time>
      </trkpt>
      <trkpt lat="47.598936148" lon="12.813442787">
        <ele>1449.8</ele>
        <time>2021-08-19T05:00:53Z</time>
      </trkpt>
      <trkpt lat="47.599022985" lon="12.813207759">
        <ele>1459.0</ele>
        <time>2021-08-19T05:02:03Z</time>
      </trkpt>
      <trkpt lat="47.599596810" lon="12.812893186">
        <ele>1476.8</ele>
        <time>2021-08-19T05:04:23Z</time>
      </trkpt>
      <trkpt lat="47.599719940" lon="12.812742060">
        <ele>1485.0</ele>
        <time>2021-08-19T05:05:19Z</time>
      </trkpt>
      <trkpt lat="47.599932924" lon="12.812735187">
        <ele>1494.0</ele>
        <time>2021-08-19T05:06:36Z</time>
      </trkpt>
      <trkpt lat="47.599980198" lon="12.812651536">
        <ele>1497.2</ele>
        <time>2021-08-19T05:07:03Z</time>
      </trkpt>
      <trkpt lat="47.600183375" lon="12.812725967">
        <ele>1505.3</ele>
        <time>2021-08-19T05:08:01Z</time>
      </trkpt>
      <trkpt lat="47.600383954" lon="12.812662600">
        <ele>1518.7</ele>
        <time>2021-08-19T05:09:42Z</time>
      </trkpt>
      <trkpt lat="47.600540360" lon="12.812829651">
        <ele>1528.7</ele>
        <time>2021-08-19T05:10:57Z</time>
      </trkpt>
      <trkpt lat="47.600597274" lon="12.812743066">
        <ele>1533.0</ele>
        <time>2021-08-19T05:11:27Z</time>
      </trkpt>
      <trkpt lat="47.600709926" lon="12.812983878">
        <ele>1543.4</ele>
        <time>2021-08-19T05:12:59Z</time>
      </trkpt>
      <trkpt lat="47.600749237" lon="12.812928138">
        <ele>1549.7</ele>
        <time>2021-08-19T05:14:41Z</time>
      </trkpt>
      <trkpt lat="47.600888629" lon="12.813191665">
        <ele>1563.5</ele>
        <time>2021-08-19T05:16:29Z</time>
      </trkpt>
      <trkpt lat="47.600946715" lon="12.813201724">
        <ele>1569.2</ele>
        <time>2021-08-19T05:17:17Z</time>
      </trkpt>
      <trkpt lat="47.601092057" lon="12.813058477">
        <ele>1589.3</ele>
        <time>2021-08-19T05:19:37Z</time>
      </trkpt>
      <trkpt lat="47.601164142" lon="12.813159144">
        <ele>1599.2</ele>
        <time>2021-08-19T05:23:21Z</time>
      </trkpt>
      <trkpt lat="47.601287188" lon="12.813026877">
        <ele>1608.3</ele>
        <time>2021-08-19T05:24:27Z</time>
      </trkpt>
      <trkpt lat="47.601353908" lon="12.813105499">
        <ele>1613.3</ele>
        <time>2021-08-19T05:25:02Z</time>
      </trkpt>
      <trkpt lat="47.601459352" lon="12.813075492">
        <ele>1619.6</ele>
        <time>2021-08-19T05:25:41Z</time>
      </trkpt>
      <trkpt lat="47.601548955" lon="12.812727727">
        <ele>1630.5</ele>
        <time>2021-08-19T05:26:58Z</time>
      </trkpt>
      <trkpt lat="47.601766717" lon="12.812706102">
        <ele>1642.4</ele>
        <time>2021-08-19T05:28:14Z</time>
      </trkpt>
      <trkpt lat="47.602031082" lon="12.812258340">
        <ele>1659.6</ele>
        <time>2021-08-19T05:30:09Z</time>
      </trkpt>
      <trkpt lat="47.602568781" lon="12.812382225">
        <ele>1678.4</ele>
        <time>2021-08-19T05:34:23Z</time>
      </trkpt>
      <trkpt lat="47.602728372" lon="12.812326737">
        <ele>1684.8</ele>
        <time>2021-08-19T05:35:11Z</time>
      </trkpt>
      <trkpt lat="47.603077143" lon="12.812453303">
        <ele>1695.0</ele>
        <time>2021-08-19T05:36:34Z</time>
      </trkpt>
      <trkpt lat="47.603039592" lon="12.812023228">
        <ele>1698.4</ele>
        <time>2021-08-19T05:38:42Z</time>
      </trkpt>
      <trkpt lat="47.602876732" lon="12.811504975">
        <ele>1705.0</ele>
        <time>2021-08-19T05:39:57Z</time>
      </trkpt>
      <trkpt lat="47.602955941" lon="12.811344461">
        <ele>1708.9</ele>
        <time>2021-08-19T05:40:27Z</time>
      </trkpt>
      <trkpt lat="47.602943284" lon="12.811253015">
        <ele>1710.3</ele>
        <time>2021-08-19T05:40:40Z</time>
      </trkpt>
      <trkpt lat="47.602916546" lon="12.811133573">
        <ele>1711.9</ele>
        <time>2021-08-19T05:40:56Z</time>
      </trkpt>
      <trkpt lat="47.602829039" lon="12.811122509">
        <ele>1713.3</ele>
        <time>2021-08-19T05:41:13Z</time>
      </trkpt>
      <trkpt lat="47.602759805" lon="12.811014466">
        <ele>1720.4</ele>
        <time>2021-08-19T05:41:58Z</time>
      </trkpt>
      <trkpt lat="47.602818646" lon="12.810849510">
        <ele>1723.6</ele>
        <time>2021-08-19T05:42:34Z</time>
      </trkpt>
      <trkpt lat="47.602892322" lon="12.810753956">
        <ele>1727.7</ele>
        <time>2021-08-19T05:44:12Z</time>
      </trkpt>
      <trkpt lat="47.603236148" lon="12.810699055">
        <ele>1738.2</ele>
        <time>2021-08-19T05:46:18Z</time>
      </trkpt>
      <trkpt lat="47.603242267" lon="12.810167139">
        <ele>1753.0</ele>
        <time>2021-08-19T05:51:28Z</time>
      </trkpt>
      <trkpt lat="47.603366487" lon="12.810121877">
        <ele>1758.6</ele>
        <time>2021-08-19T05:52:44Z</time>
      </trkpt>
      <trkpt lat="47.603149060" lon="12.809612844">
        <ele>1770.5</ele>
        <time>2021-08-19T05:56:25Z</time>
      </trkpt>
      <trkpt lat="47.603098936" lon="12.809034912">
        <ele>1783.7</ele>
        <time>2021-08-19T05:58:00Z</time>
      </trkpt>
      <trkpt lat="47.602878576" lon="12.808794854">
        <ele>1788.5</ele>
        <time>2021-08-19T05:59:04Z</time>
      </trkpt>
      <trkpt lat="47.602894669" lon="12.808715226">
        <ele>1790.5</ele>
        <time>2021-08-19T05:59:20Z</time>
      </trkpt>
      <trkpt lat="47.603004053" lon="12.808687231">
        <ele>1794.2</ele>
        <time>2021-08-19T05:59:49Z</time>
      </trkpt>
      <trkpt lat="47.603050740" lon="12.808492938">
        <ele>1805.1</ele>
        <time>2021-08-19T06:01:00Z</time>
      </trkpt>
      <trkpt lat="47.603304125" lon="12.808463769">
        <ele>1815.7</ele>
        <time>2021-08-19T06:02:12Z</time>
      </trkpt>
      <trkpt lat="47.603463717" lon="12.808303675">
        <ele>1819.5</ele>
        <time>2021-08-19T06:06:37Z</time>
      </trkpt>
      <trkpt lat="47.603549883" lon="12.808408616">
        <ele>1820.4</ele>
        <time>2021-08-19T06:06:53Z</time>
      </trkpt>
      <trkpt lat="47.603815086" lon="12.808271237">
        <ele>1823.6</ele>
        <time>2021-08-19T06:07:40Z</time>
      </trkpt>
      <trkpt lat="47.604082385" lon="12.808279535">
        <ele>1831.9</ele>
        <time>2021-08-19T06:08:29Z</time>
      </trkpt>
      <trkpt lat="47.604297381" lon="12.808150789">
        <ele>1834.5</ele>
        <time>2021-08-19T06:09:04Z</time>
      </trkpt>
      <trkpt lat="47.604485387" lon="12.808149615">
        <ele>1839.9</ele>
        <time>2021-08-19T06:09:38Z</time>
      </trkpt>
      <trkpt lat="47.604727708" lon="12.807807382">
        <ele>1850.7</ele>
        <time>2021-08-19T06:10:58Z</time>
      </trkpt>
      <trkpt lat="47.605045047" lon="12.807792546">
        <ele>1866.0</ele>
        <time>2021-08-19T06:12:36Z</time>
      </trkpt>
      <trkpt lat="47.605256774" lon="12.807686599">
        <ele>1873.1</ele>
        <time>2021-08-19T06:13:30Z</time>
      </trkpt>
      <trkpt lat="47.605298599" lon="12.807587693">
        <ele>1874.8</ele>
        <time>2021-08-19T06:13:45Z</time>
      </trkpt>
      <trkpt lat="47.605625829" lon="12.807281585">
        <ele>1888.3</ele>
        <time>2021-08-19T06:15:24Z</time>
      </trkpt>
      <trkpt lat="47.605840489" lon="12.807246381">
        <ele>1900.7</ele>
        <time>2021-08-19T06:16:44Z</time>
      </trkpt>
      <trkpt lat="47.605921039" lon="12.807117887">
        <ele>1907.2</ele>
        <time>2021-08-19T06:17:31Z</time>
      </trkpt>
      <trkpt lat="47.606068393" lon="12.807090813">
        <ele>1915.0</ele>
        <time>2021-08-19T06:18:29Z</time>
      </trkpt>
      <trkpt lat="47.606361927" lon="12.806810439">
        <ele>1934.7</ele>
        <time>2021-08-19T06:21:16Z</time>
      </trkpt>
      <trkpt lat="47.606420517" lon="12.806968186">
        <ele>1943.4</ele>
        <time>2021-08-19T06:22:29Z</time>
      </trkpt>
      <trkpt lat="47.606483633" lon="12.806965672">
        <ele>1947.0</ele>
        <time>2021-08-19T06:22:57Z</time>
      </trkpt>
      <trkpt lat="47.606448177" lon="12.807035241">
        <ele>1950.0</ele>
        <time>2021-08-19T06:23:22Z</time>
      </trkpt>
      <trkpt lat="47.606509281" lon="12.807054520">
        <ele>1953.0</ele>
        <time>2021-08-19T06:23:43Z</time>
      </trkpt>
      <trkpt lat="47.606555885" lon="12.807203885">
        <ele>1961.2</ele>
        <time>2021-08-19T06:24:37Z</time>
      </trkpt>
      <trkpt lat="47.606894514" lon="12.806777833">
        <ele>1980.0</ele>
        <time>2021-08-19T06:27:10Z</time>
      </trkpt>
      <trkpt lat="47.607127866" lon="12.806246253">
        <ele>1999.2</ele>
        <time>2021-08-19T06:29:21Z</time>
      </trkpt>
      <trkpt lat="47.607429866" lon="12.806027234">
        <ele>2011.6</ele>
        <time>2021-08-19T06:30:46Z</time>
      </trkpt>
      <trkpt lat="47.607485605" lon="12.805858925">
        <ele>2013.1</ele>
        <time>2021-08-19T06:31:58Z</time>
      </trkpt>
      <trkpt lat="47.607805543" lon="12.805860853">
        <ele>2018.9</ele>
        <time>2021-08-19T06:33:02Z</time>
      </trkpt>
      <trkpt lat="47.608010061" lon="12.805640073">
        <ele>2026.6</ele>
        <time>2021-08-19T06:34:33Z</time>
      </trkpt>
      <trkpt lat="47.608673405" lon="12.805465143">
        <ele>2051.2</ele>
        <time>2021-08-19T06:37:31Z</time>
      </trkpt>
      <trkpt lat="47.608947409" lon="12.805043031">
        <ele>2056.9</ele>
        <time>2021-08-19T06:42:58Z</time>
      </trkpt>
      <trkpt lat="47.608916396" lon="12.805071445">
        <ele>2056.3</ele>
        <time>2021-08-19T06:45:10Z</time>
      </trkpt>
      <trkpt lat="47.608557735" lon="12.804656038">
        <ele>2050.5</ele>
        <time>2021-08-19T06:46:11Z</time>
      </trkpt>
      <trkpt lat="47.608219357" lon="12.804099647">
        <ele>2055.1</ele>
        <time>2021-08-19T06:47:09Z</time>
      </trkpt>
      <trkpt lat="47.607967062" lon="12.803891525">
        <ele>2058.9</ele>
        <time>2021-08-19T06:47:47Z</time>
      </trkpt>
      <trkpt lat="47.607668163" lon="12.803772418">
        <ele>2064.7</ele>
        <time>2021-08-19T06:48:37Z</time>
      </trkpt>
      <trkpt lat="47.607730776" lon="12.803699998">
        <ele>2066.7</ele>
        <time>2021-08-19T06:48:52Z</time>
      </trkpt>
      <trkpt lat="47.607673276" lon="12.803602098">
        <ele>2069.8</ele>
        <time>2021-08-19T06:49:08Z</time>
      </trkpt>
      <trkpt lat="47.606975148" lon="12.802794753">
        <ele>2080.5</ele>
        <time>2021-08-19T06:50:58Z</time>
      </trkpt>
      <trkpt lat="47.606728133" lon="12.802646142">
        <ele>2079.8</ele>
        <time>2021-08-19T06:51:32Z</time>
      </trkpt>
      <trkpt lat="47.606298057" lon="12.802585792">
        <ele>2078.8</ele>
        <time>2021-08-19T06:52:41Z</time>
      </trkpt>
      <trkpt lat="47.605811907" lon="12.802306004">
        <ele>2073.6</ele>
        <time>2021-08-19T06:53:29Z</time>
      </trkpt>
      <trkpt lat="47.605504291" lon="12.801990844">
        <ele>2067.7</ele>
        <time>2021-08-19T06:54:11Z</time>
      </trkpt>
      <trkpt lat="47.605493898" lon="12.801641570">
        <ele>2067.2</ele>
        <time>2021-08-19T06:54:53Z</time>
      </trkpt>
      <trkpt lat="47.605642006" lon="12.801206214">
        <ele>2074.6</ele>
        <time>2021-08-19T06:55:54Z</time>
      </trkpt>
      <trkpt lat="47.605509656" lon="12.800922068">
        <ele>2077.8</ele>
        <time>2021-08-19T06:56:28Z</time>
      </trkpt>
      <trkpt lat="47.605424831" lon="12.800330389">
        <ele>2080.2</ele>
        <time>2021-08-19T06:59:00Z</time>
      </trkpt>
      <trkpt lat="47.605151413" lon="12.799907019">
        <ele>2078.6</ele>
        <time>2021-08-19T06:59:50Z</time>
      </trkpt>
      <trkpt lat="47.605145294" lon="12.799832756">
        <ele>2080.2</ele>
        <time>2021-08-19T07:00:03Z</time>
      </trkpt>
      <trkpt lat="47.605284685" lon="12.799621616">
        <ele>2082.5</ele>
        <time>2021-08-19T07:00:35Z</time>
      </trkpt>
      <trkpt lat="47.605246128" lon="12.799432855">
        <ele>2082.8</ele>
        <time>2021-08-19T07:01:28Z</time>
      </trkpt>
      <trkpt lat="47.604784621" lon="12.798405234">
        <ele>2072.0</ele>
        <time>2021-08-19T07:03:26Z</time>
      </trkpt>
      <trkpt lat="47.604376757" lon="12.797992174">
        <ele>2074.1</ele>
        <time>2021-08-19T07:04:21Z</time>
      </trkpt>
      <trkpt lat="47.604329986" lon="12.797696041">
        <ele>2077.9</ele>
        <time>2021-08-19T07:04:51Z</time>
      </trkpt>
      <trkpt lat="47.604201827" lon="12.797486493">
        <ele>2083.7</ele>
        <time>2021-08-19T07:05:26Z</time>
      </trkpt>
      <trkpt lat="47.604065705" lon="12.797499401">
        <ele>2087.2</ele>
        <time>2021-08-19T07:05:51Z</time>
      </trkpt>
      <trkpt lat="47.603494730" lon="12.797055747">
        <ele>2091.4</ele>
        <time>2021-08-19T07:09:52Z</time>
      </trkpt>
      <trkpt lat="47.603248302" lon="12.796567585">
        <ele>2087.2</ele>
        <time>2021-08-19T07:10:46Z</time>
      </trkpt>
      <trkpt lat="47.602938758" lon="12.796146143">
        <ele>2076.9</ele>
        <time>2021-08-19T07:11:44Z</time>
      </trkpt>
      <trkpt lat="47.602188662" lon="12.795756301">
        <ele>2068.8</ele>
        <time>2021-08-19T07:13:24Z</time>
      </trkpt>
      <trkpt lat="47.601629840" lon="12.795043923">
        <ele>2061.2</ele>
        <time>2021-08-19T07:14:39Z</time>
      </trkpt>
      <trkpt lat="47.601600168" lon="12.794724153">
        <ele>2060.5</ele>
        <time>2021-08-19T07:15:33Z</time>
      </trkpt>
      <trkpt lat="47.601512577" lon="12.794598509">
        <ele>2058.4</ele>
        <time>2021-08-19T07:16:00Z</time>
      </trkpt>
      <trkpt lat="47.601545434" lon="12.794270441">
        <ele>2059.7</ele>
        <time>2021-08-19T07:16:30Z</time>
      </trkpt>
      <trkpt lat="47.601440242" lon="12.794124596">
        <ele>2059.2</ele>
        <time>2021-08-19T07:16:47Z</time>
      </trkpt>
      <trkpt lat="47.601431357" lon="12.793914545">
        <ele>2060.3</ele>
        <time>2021-08-19T07:17:10Z</time>
      </trkpt>
      <trkpt lat="47.601382574" lon="12.793839024">
        <ele>2060.1</ele>
        <time>2021-08-19T07:17:25Z</time>
      </trkpt>
      <trkpt lat="47.601301353" lon="12.793765012">
        <ele>2057.7</ele>
        <time>2021-08-19T07:23:08Z</time>
      </trkpt>
      <trkpt lat="47.601225665" lon="12.793804994">
        <ele>2057.9</ele>
        <time>2021-08-19T07:23:23Z</time>
      </trkpt>
      <trkpt lat="47.601435380" lon="12.793606594">
        <ele>2057.2</ele>
        <time>2021-08-19T07:23:56Z</time>
      </trkpt>
      <trkpt lat="47.601478798" lon="12.793303169">
        <ele>2057.8</ele>
        <time>2021-08-19T07:24:38Z</time>
      </trkpt>
      <trkpt lat="47.601272771" lon="12.793126646">
        <ele>2058.4</ele>
        <time>2021-08-19T07:25:13Z</time>
      </trkpt>
      <trkpt lat="47.601102870" lon="12.793043498">
        <ele>2061.6</ele>
        <time>2021-08-19T07:25:41Z</time>
      </trkpt>
      <trkpt lat="47.600844540" lon="12.793051545">
        <ele>2064.0</ele>
        <time>2021-08-19T07:26:14Z</time>
      </trkpt>
      <trkpt lat="47.600471629" lon="12.792802937">
        <ele>2073.7</ele>
        <time>2021-08-19T07:27:36Z</time>
      </trkpt>
      <trkpt lat="47.600396443" lon="12.792400606">
        <ele>2084.6</ele>
        <time>2021-08-19T07:29:08Z</time>
      </trkpt>
      <trkpt lat="47.600306589" lon="12.792370096">
        <ele>2089.4</ele>
        <time>2021-08-19T07:29:39Z</time>
      </trkpt>
      <trkpt lat="47.600236014" lon="12.792223077">
        <ele>2096.6</ele>
        <time>2021-08-19T07:30:37Z</time>
      </trkpt>
      <trkpt lat="47.600144986" lon="12.791629219">
        <ele>2108.1</ele>
        <time>2021-08-19T07:32:10Z</time>
      </trkpt>
      <trkpt lat="47.600027388" lon="12.791474992">
        <ele>2113.8</ele>
        <time>2021-08-19T07:32:54Z</time>
      </trkpt>
      <trkpt lat="47.600062089" lon="12.791318754">
        <ele>2114.4</ele>
        <time>2021-08-19T07:33:36Z</time>
      </trkpt>
      <trkpt lat="47.599994447" lon="12.791105937">
        <ele>2118.5</ele>
        <time>2021-08-19T07:38:30Z</time>
      </trkpt>
      <trkpt lat="47.600081284" lon="12.790959170">
        <ele>2124.0</ele>
        <time>2021-08-19T07:39:12Z</time>
      </trkpt>
      <trkpt lat="47.600101149" lon="12.790699163">
        <ele>2124.8</ele>
        <time>2021-08-19T07:39:49Z</time>
      </trkpt>
      <trkpt lat="47.600037446" lon="12.790427757">
        <ele>2120.8</ele>
        <time>2021-08-19T07:40:29Z</time>
      </trkpt>
      <trkpt lat="47.599616507" lon="12.790215360">
        <ele>2138.8</ele>
        <time>2021-08-19T07:42:23Z</time>
      </trkpt>
      <trkpt lat="47.599576442" lon="12.790251570">
        <ele>2140.9</ele>
        <time>2021-08-19T07:42:37Z</time>
      </trkpt>
      <trkpt lat="47.599305790" lon="12.790014362">
        <ele>2157.3</ele>
        <time>2021-08-19T07:44:25Z</time>
      </trkpt>
      <trkpt lat="47.599200765" lon="12.790107652">
        <ele>2164.2</ele>
        <time>2021-08-19T07:45:23Z</time>
      </trkpt>
      <trkpt lat="47.598932879" lon="12.790021319">
        <ele>2174.4</ele>
        <time>2021-08-19T07:46:26Z</time>
      </trkpt>
      <trkpt lat="47.598823998" lon="12.790066749">
        <ele>2178.2</ele>
        <time>2021-08-19T07:46:54Z</time>
      </trkpt>
      <trkpt lat="47.598781753" lon="12.790194992">
        <ele>2183.3</ele>
        <time>2021-08-19T07:47:18Z</time>
      </trkpt>
      <trkpt lat="47.598781921" lon="12.790506296">
        <ele>2193.1</ele>
        <time>2021-08-19T07:48:18Z</time>
      </trkpt>
      <trkpt lat="47.598867500" lon="12.790836711">
        <ele>2204.8</ele>
        <time>2021-08-19T07:49:44Z</time>
      </trkpt>
      <trkpt lat="47.598651750" lon="12.790997643">
        <ele>2218.0</ele>
        <time>2021-08-19T07:51:07Z</time>
      </trkpt>
      <trkpt lat="47.598841349" lon="12.791279023">
        <ele>2227.7</ele>
        <time>2021-08-19T07:52:19Z</time>
      </trkpt>
      <trkpt lat="47.598834727" lon="12.791341469">
        <ele>2231.0</ele>
        <time>2021-08-19T07:52:32Z</time>
      </trkpt>
      <trkpt lat="47.598706484" lon="12.791352617">
        <ele>2236.2</ele>
        <time>2021-08-19T07:53:13Z</time>
      </trkpt>
      <trkpt lat="47.598990546" lon="12.791811777">
        <ele>2245.4</ele>
        <time>2021-08-19T07:55:30Z</time>
      </trkpt>
      <trkpt lat="47.598381769" lon="12.791265864">
        <ele>2232.2</ele>
        <time>2021-08-19T08:26:55Z</time>
      </trkpt>
      <trkpt lat="47.598176831" lon="12.791218255">
        <ele>2219.3</ele>
        <time>2021-08-19T08:29:56Z</time>
      </trkpt>
      <trkpt lat="47.598069711" lon="12.791377259">
        <ele>2206.0</ele>
        <time>2021-08-19T08:33:47Z</time>
      </trkpt>
      <trkpt lat="47.597942809" lon="12.791320262">
        <ele>2191.3</ele>
        <time>2021-08-19T08:35:50Z</time>
      </trkpt>
      <trkpt lat="47.597896792" lon="12.791204425">
        <ele>2187.5</ele>
        <time>2021-08-19T08:36:48Z</time>
      </trkpt>
      <trkpt lat="47.597749857" lon="12.791150697">
        <ele>2167.8</ele>
        <time>2021-08-19T08:44:18Z</time>
      </trkpt>
      <trkpt lat="47.597581968" lon="12.791222446">
        <ele>2148.4</ele>
        <time>2021-08-19T08:48:04Z</time>
      </trkpt>
      <trkpt lat="47.597514326" lon="12.791456049">
        <ele>2138.2</ele>
        <time>2021-08-19T08:50:49Z</time>
      </trkpt>
      <trkpt lat="47.597414916" lon="12.791542299">
        <ele>2130.3</ele>
        <time>2021-08-19T08:51:38Z</time>
      </trkpt>
      <trkpt lat="47.597449701" lon="12.791608265">
        <ele>2126.2</ele>
        <time>2021-08-19T08:52:04Z</time>
      </trkpt>
      <trkpt lat="47.597309640" lon="12.791726952">
        <ele>2115.2</ele>
        <time>2021-08-19T08:53:22Z</time>
      </trkpt>
      <trkpt lat="47.597398991" lon="12.791849664">
        <ele>2109.8</ele>
        <time>2021-08-19T08:54:11Z</time>
      </trkpt>
      <trkpt lat="47.597216433" lon="12.792023420">
        <ele>2101.7</ele>
        <time>2021-08-19T08:55:19Z</time>
      </trkpt>
      <trkpt lat="47.597145606" lon="12.792190807">
        <ele>2097.3</ele>
        <time>2021-08-19T08:55:48Z</time>
      </trkpt>
      <trkpt lat="47.597116018" lon="12.792351153">
        <ele>2092.2</ele>
        <time>2021-08-19T08:57:25Z</time>
      </trkpt>
      <trkpt lat="47.597158179" lon="12.792306896">
        <ele>2093.3</ele>
        <time>2021-08-19T08:57:44Z</time>
      </trkpt>
      <trkpt lat="47.596484693" lon="12.792575955">
        <ele>2096.4</ele>
        <time>2021-08-19T09:01:05Z</time>
      </trkpt>
      <trkpt lat="47.596248155" lon="12.792824563">
        <ele>2092.5</ele>
        <time>2021-08-19T09:02:25Z</time>
      </trkpt>
      <trkpt lat="47.595952191" lon="12.792954650">
        <ele>2080.7</ele>
        <time>2021-08-19T09:03:27Z</time>
      </trkpt>
      <trkpt lat="47.595796287" lon="12.793225469">
        <ele>2065.5</ele>
        <time>2021-08-19T09:05:09Z</time>
      </trkpt>
      <trkpt lat="47.595810033" lon="12.793294284">
        <ele>2063.0</ele>
        <time>2021-08-19T09:05:37Z</time>
      </trkpt>
      <trkpt lat="47.595685814" lon="12.793344241">
        <ele>2057.9</ele>
        <time>2021-08-19T09:06:22Z</time>
      </trkpt>
      <trkpt lat="47.595799556" lon="12.793512801">
        <ele>2056.0</ele>
        <time>2021-08-19T09:06:53Z</time>
      </trkpt>
      <trkpt lat="47.595707020" lon="12.793408530">
        <ele>2055.3</ele>
        <time>2021-08-19T09:08:35Z</time>
      </trkpt>
      <trkpt lat="47.595637199" lon="12.793449853">
        <ele>2055.0</ele>
        <time>2021-08-19T09:12:56Z</time>
      </trkpt>
      <trkpt lat="47.595603336" lon="12.793345414">
        <ele>2051.0</ele>
        <time>2021-08-19T09:13:59Z</time>
      </trkpt>
      <trkpt lat="47.595542986" lon="12.793389168">
        <ele>2047.7</ele>
        <time>2021-08-19T09:14:15Z</time>
      </trkpt>
      <trkpt lat="47.595328158" lon="12.793212645">
        <ele>2032.0</ele>
        <time>2021-08-19T09:15:18Z</time>
      </trkpt>
      <trkpt lat="47.595140068" lon="12.793176183">
        <ele>2026.3</ele>
        <time>2021-08-19T09:16:37Z</time>
      </trkpt>
      <trkpt lat="47.594833626" lon="12.792718867">
        <ele>2004.5</ele>
        <time>2021-08-19T09:20:00Z</time>
      </trkpt>
      <trkpt lat="47.594724242" lon="12.792687518">
        <ele>1995.8</ele>
        <time>2021-08-19T09:21:37Z</time>
      </trkpt>
      <trkpt lat="47.594774784" lon="12.792830262">
        <ele>1997.0</ele>
        <time>2021-08-19T09:22:31Z</time>
      </trkpt>
      <trkpt lat="47.594826166" lon="12.792787095">
        <ele>1997.7</ele>
        <time>2021-08-19T09:22:59Z</time>
      </trkpt>
      <trkpt lat="47.594814179" lon="12.792675616">
        <ele>1997.3</ele>
        <time>2021-08-19T09:23:14Z</time>
      </trkpt>
      <trkpt lat="47.594706640" lon="12.792766728">
        <ele>1995.8</ele>
        <time>2021-08-19T09:23:33Z</time>
      </trkpt>
      <trkpt lat="47.594746035" lon="12.792827580">
        <ele>1992.0</ele>
        <time>2021-08-19T09:23:53Z</time>
      </trkpt>
      <trkpt lat="47.594706556" lon="12.792838057">
        <ele>1990.6</ele>
        <time>2021-08-19T09:24:01Z</time>
      </trkpt>
      <trkpt lat="47.594715860" lon="12.792707384">
        <ele>1986.2</ele>
        <time>2021-08-19T09:25:08Z</time>
      </trkpt>
      <trkpt lat="47.594582420" lon="12.792690955">
        <ele>1983.7</ele>
        <time>2021-08-19T09:26:03Z</time>
      </trkpt>
      <trkpt lat="47.594728265" lon="12.792707467">
        <ele>1983.8</ele>
        <time>2021-08-19T09:26:31Z</time>
      </trkpt>
      <trkpt lat="47.594738156" lon="12.792609064">
        <ele>1980.9</ele>
        <time>2021-08-19T09:26:48Z</time>
      </trkpt>
      <trkpt lat="47.594635477" lon="12.792650303">
        <ele>1974.6</ele>
        <time>2021-08-19T09:27:20Z</time>
      </trkpt>
      <trkpt lat="47.594616199" lon="12.792588025">
        <ele>1972.6</ele>
        <time>2021-08-19T09:27:37Z</time>
      </trkpt>
      <trkpt lat="47.594677554" lon="12.792522563">
        <ele>1971.7</ele>
        <time>2021-08-19T09:28:32Z</time>
      </trkpt>
      <trkpt lat="47.594643608" lon="12.792624068">
        <ele>1966.2</ele>
        <time>2021-08-19T09:29:35Z</time>
      </trkpt>
      <trkpt lat="47.594572697" lon="12.792638736">
        <ele>1966.4</ele>
        <time>2021-08-19T09:30:04Z</time>
      </trkpt>
      <trkpt lat="47.594522322" lon="12.792597162">
        <ele>1959.4</ele>
        <time>2021-08-19T09:31:29Z</time>
      </trkpt>
      <trkpt lat="47.594458535" lon="12.792243864">
        <ele>1944.8</ele>
        <time>2021-08-19T09:34:19Z</time>
      </trkpt>
      <trkpt lat="47.594470018" lon="12.792336736">
        <ele>1946.9</ele>
        <time>2021-08-19T09:34:41Z</time>
      </trkpt>
      <trkpt lat="47.594405310" lon="12.792251408">
        <ele>1938.2</ele>
        <time>2021-08-19T09:35:35Z</time>
      </trkpt>
      <trkpt lat="47.594313612" lon="12.792333635">
        <ele>1934.3</ele>
        <time>2021-08-19T09:37:16Z</time>
      </trkpt>
      <trkpt lat="47.594397934" lon="12.792167673">
        <ele>1929.9</ele>
        <time>2021-08-19T09:38:14Z</time>
      </trkpt>
      <trkpt lat="47.594282012" lon="12.792025683">
        <ele>1924.7</ele>
        <time>2021-08-19T09:38:55Z</time>
      </trkpt>
      <trkpt lat="47.594253849" lon="12.791866595">
        <ele>1919.5</ele>
        <time>2021-08-19T09:39:57Z</time>
      </trkpt>
      <trkpt lat="47.594199199" lon="12.791916132">
        <ele>1917.5</ele>
        <time>2021-08-19T09:40:23Z</time>
      </trkpt>
      <trkpt lat="47.594277905" lon="12.791970698">
        <ele>1914.6</ele>
        <time>2021-08-19T09:40:40Z</time>
      </trkpt>
      <trkpt lat="47.594327610" lon="12.791831307">
        <ele>1913.9</ele>
        <time>2021-08-19T09:40:50Z</time>
      </trkpt>
      <trkpt lat="47.594297267" lon="12.791767940">
        <ele>1914.0</ele>
        <time>2021-08-19T09:41:20Z</time>
      </trkpt>
      <trkpt lat="47.594153266" lon="12.791987378">
        <ele>1913.8</ele>
        <time>2021-08-19T09:41:47Z</time>
      </trkpt>
      <trkpt lat="47.594134240" lon="12.792181252">
        <ele>1920.5</ele>
        <time>2021-08-19T09:42:19Z</time>
      </trkpt>
      <trkpt lat="47.593871551" lon="12.792136576">
        <ele>1929.0</ele>
        <time>2021-08-19T09:43:41Z</time>
      </trkpt>
      <trkpt lat="47.593818661" lon="12.792337323">
        <ele>1930.2</ele>
        <time>2021-08-19T09:44:11Z</time>
      </trkpt>
      <trkpt lat="47.593543734" lon="12.792328941">
        <ele>1935.5</ele>
        <time>2021-08-19T09:45:22Z</time>
      </trkpt>
      <trkpt lat="47.593449857" lon="12.792218551">
        <ele>1934.6</ele>
        <time>2021-08-19T09:45:48Z</time>
      </trkpt>
      <trkpt lat="47.593420688" lon="12.792418627">
        <ele>1935.0</ele>
        <time>2021-08-19T09:46:34Z</time>
      </trkpt>
      <trkpt lat="47.593351789" lon="12.792349728">
        <ele>1934.8</ele>
        <time>2021-08-19T09:47:29Z</time>
      </trkpt>
      <trkpt lat="47.593116174" lon="12.792347129">
        <ele>1924.4</ele>
        <time>2021-08-19T09:49:18Z</time>
      </trkpt>
      <trkpt lat="47.592794476" lon="12.792398175">
        <ele>1910.1</ele>
        <time>2021-08-19T09:50:36Z</time>
      </trkpt>
      <trkpt lat="47.592717279" lon="12.792545278">
        <ele>1907.0</ele>
        <time>2021-08-19T09:50:54Z</time>
      </trkpt>
      <trkpt lat="47.592413016" lon="12.792668492">
        <ele>1910.6</ele>
        <time>2021-08-19T09:51:50Z</time>
      </trkpt>
      <trkpt lat="47.592311930" lon="12.792574447">
        <ele>1912.0</ele>
        <time>2021-08-19T09:52:10Z</time>
      </trkpt>
      <trkpt lat="47.592365490" lon="12.792669078">
        <ele>1910.3</ele>
        <time>2021-08-19T09:53:04Z</time>
      </trkpt>
      <trkpt lat="47.592325592" lon="12.792671509">
        <ele>1910.1</ele>
        <time>2021-08-19T09:53:26Z</time>
      </trkpt>
      <trkpt lat="47.592174718" lon="12.792500518">
        <ele>1912.3</ele>
        <time>2021-08-19T09:55:07Z</time>
      </trkpt>
      <trkpt lat="47.592184525" lon="12.792984825">
        <ele>1923.3</ele>
        <time>2021-08-19T09:56:54Z</time>
      </trkpt>
      <trkpt lat="47.592133647" lon="12.792938473">
        <ele>1924.8</ele>
        <time>2021-08-19T09:57:24Z</time>
      </trkpt>
      <trkpt lat="47.592108920" lon="12.793004522">
        <ele>1924.3</ele>
        <time>2021-08-19T09:57:48Z</time>
      </trkpt>
      <trkpt lat="47.592109926" lon="12.792928247">
        <ele>1923.2</ele>
        <time>2021-08-19T09:59:13Z</time>
      </trkpt>
      <trkpt lat="47.592139346" lon="12.793007540">
        <ele>1922.8</ele>
        <time>2021-08-19T10:00:27Z</time>
      </trkpt>
      <trkpt lat="47.591899540" lon="12.793127820">
        <ele>1925.0</ele>
        <time>2021-08-19T10:02:23Z</time>
      </trkpt>
      <trkpt lat="47.591725448" lon="12.793123964">
        <ele>1930.6</ele>
        <time>2021-08-19T10:02:51Z</time>
      </trkpt>
      <trkpt lat="47.591468040" lon="12.793355891">
        <ele>1934.2</ele>
        <time>2021-08-19T10:04:34Z</time>
      </trkpt>
      <trkpt lat="47.591319093" lon="12.793607097">
        <ele>1943.2</ele>
        <time>2021-08-19T10:05:36Z</time>
      </trkpt>
      <trkpt lat="47.591102673" lon="12.793601481">
        <ele>1945.2</ele>
        <time>2021-08-19T10:08:04Z</time>
      </trkpt>
      <trkpt lat="47.590965712" lon="12.793799881">
        <ele>1941.8</ele>
        <time>2021-08-19T10:10:27Z</time>
      </trkpt>
      <trkpt lat="47.590952050" lon="12.793730646">
        <ele>1940.1</ele>
        <time>2021-08-19T10:12:58Z</time>
      </trkpt>
      <trkpt lat="47.590870997" lon="12.793780938">
        <ele>1935.7</ele>
        <time>2021-08-19T10:14:13Z</time>
      </trkpt>
      <trkpt lat="47.590733198" lon="12.794263819">
        <ele>1921.1</ele>
        <time>2021-08-19T10:15:58Z</time>
      </trkpt>
      <trkpt lat="47.590529602" lon="12.794501195">
        <ele>1909.9</ele>
        <time>2021-08-19T10:16:47Z</time>
      </trkpt>
      <trkpt lat="47.590500014" lon="12.794598760">
        <ele>1908.3</ele>
        <time>2021-08-19T10:17:06Z</time>
      </trkpt>
      <trkpt lat="47.590563381" lon="12.794714346">
        <ele>1914.5</ele>
        <time>2021-08-19T10:17:54Z</time>
      </trkpt>
      <trkpt lat="47.590520466" lon="12.794751311">
        <ele>1908.9</ele>
        <time>2021-08-19T10:17:57Z</time>
      </trkpt>
      <trkpt lat="47.590422733" lon="12.794619799">
        <ele>1908.3</ele>
        <time>2021-08-19T10:18:53Z</time>
      </trkpt>
      <trkpt lat="47.590183848" lon="12.794980891">
        <ele>1904.3</ele>
        <time>2021-08-19T10:19:42Z</time>
      </trkpt>
      <trkpt lat="47.590126181" lon="12.795117768">
        <ele>1913.3</ele>
        <time>2021-08-19T10:20:31Z</time>
      </trkpt>
      <trkpt lat="47.590154847" lon="12.795225894">
        <ele>1912.8</ele>
        <time>2021-08-19T10:21:09Z</time>
      </trkpt>
      <trkpt lat="47.590089552" lon="12.795324968">
        <ele>1909.9</ele>
        <time>2021-08-19T10:21:53Z</time>
      </trkpt>
      <trkpt lat="47.589738183" lon="12.795757726">
        <ele>1892.5</ele>
        <time>2021-08-19T10:23:25Z</time>
      </trkpt>
      <trkpt lat="47.589689652" lon="12.795719756">
        <ele>1889.3</ele>
        <time>2021-08-19T10:23:37Z</time>
      </trkpt>
      <trkpt lat="47.589558056" lon="12.795976577">
        <ele>1877.5</ele>
        <time>2021-08-19T10:25:10Z</time>
      </trkpt>
      <trkpt lat="47.589242477" lon="12.796264160">
        <ele>1857.7</ele>
        <time>2021-08-19T10:27:02Z</time>
      </trkpt>
      <trkpt lat="47.589206938" lon="12.796427105">
        <ele>1852.7</ele>
        <time>2021-08-19T10:27:33Z</time>
      </trkpt>
      <trkpt lat="47.588889515" lon="12.796531627">
        <ele>1832.8</ele>
        <time>2021-08-19T10:29:48Z</time>
      </trkpt>
      <trkpt lat="47.588771163" lon="12.796662720">
        <ele>1824.4</ele>
        <time>2021-08-19T10:30:31Z</time>
      </trkpt>
      <trkpt lat="47.588766050" lon="12.796756010">
        <ele>1822.1</ele>
        <time>2021-08-19T10:30:57Z</time>
      </trkpt>
      <trkpt lat="47.588687260" lon="12.796745365">
        <ele>1817.9</ele>
        <time>2021-08-19T10:31:18Z</time>
      </trkpt>
      <trkpt lat="47.588646775" lon="12.796861203">
        <ele>1812.9</ele>
        <time>2021-08-19T10:31:49Z</time>
      </trkpt>
      <trkpt lat="47.588262632" lon="12.797119785">
        <ele>1797.3</ele>
        <time>2021-08-19T10:33:04Z</time>
      </trkpt>
      <trkpt lat="47.588232793" lon="12.797357580">
        <ele>1800.4</ele>
        <time>2021-08-19T10:35:58Z</time>
      </trkpt>
      <trkpt lat="47.588240253" lon="12.797218021">
        <ele>1795.4</ele>
        <time>2021-08-19T10:37:18Z</time>
      </trkpt>
      <trkpt lat="47.587982677" lon="12.797439555">
        <ele>1788.2</ele>
        <time>2021-08-19T10:38:35Z</time>
      </trkpt>
      <trkpt lat="47.587961135" lon="12.797510968">
        <ele>1786.6</ele>
        <time>2021-08-19T10:39:51Z</time>
      </trkpt>
      <trkpt lat="47.588063478" lon="12.797443997">
        <ele>1785.6</ele>
        <time>2021-08-19T10:40:58Z</time>
      </trkpt>
      <trkpt lat="47.588187111" lon="12.797549609">
        <ele>1783.7</ele>
        <time>2021-08-19T10:42:17Z</time>
      </trkpt>
      <trkpt lat="47.587986197" lon="12.797362525">
        <ele>1781.9</ele>
        <time>2021-08-19T10:45:20Z</time>
      </trkpt>
      <trkpt lat="47.587984605" lon="12.797446176">
        <ele>1781.2</ele>
        <time>2021-08-19T10:49:11Z</time>
      </trkpt>
      <trkpt lat="47.587946802" lon="12.797436705">
        <ele>1779.8</ele>
        <time>2021-08-19T10:54:45Z</time>
      </trkpt>
      <trkpt lat="47.587943366" lon="12.797350287">
        <ele>1777.5</ele>
        <time>2021-08-19T11:02:07Z</time>
      </trkpt>
      <trkpt lat="47.587944539" lon="12.797410050">
        <ele>1778.3</ele>
        <time>2021-08-19T11:03:28Z</time>
      </trkpt>
      <trkpt lat="47.587873209" lon="12.797463778">
        <ele>1773.5</ele>
        <time>2021-08-19T11:04:01Z</time>
      </trkpt>
      <trkpt lat="47.587846220" lon="12.797388006">
        <ele>1770.4</ele>
        <time>2021-08-19T11:04:13Z</time>
      </trkpt>
      <trkpt lat="47.587790564" lon="12.797408206">
        <ele>1767.0</ele>
        <time>2021-08-19T11:04:25Z</time>
      </trkpt>
      <trkpt lat="47.587434752" lon="12.797742058">
        <ele>1747.4</ele>
        <time>2021-08-19T11:05:53Z</time>
      </trkpt>
      <trkpt lat="47.587284632" lon="12.797680115">
        <ele>1739.2</ele>
        <time>2021-08-19T11:06:29Z</time>
      </trkpt>
      <trkpt lat="47.587157395" lon="12.797737699">
        <ele>1729.8</ele>
        <time>2021-08-19T11:06:56Z</time>
      </trkpt>
      <trkpt lat="47.586952373" lon="12.797256242">
        <ele>1724.7</ele>
        <time>2021-08-19T11:07:39Z</time>
      </trkpt>
      <trkpt lat="47.586738719" lon="12.797032781">
        <ele>1719.1</ele>
        <time>2021-08-19T11:08:14Z</time>
      </trkpt>
      <trkpt lat="47.586508384" lon="12.796998499">
        <ele>1712.0</ele>
        <time>2021-08-19T11:08:41Z</time>
      </trkpt>
      <trkpt lat="47.586310487" lon="12.797030518">
        <ele>1700.8</ele>
        <time>2021-08-19T11:09:31Z</time>
      </trkpt>
      <trkpt lat="47.586256508" lon="12.797090113">
        <ele>1694.8</ele>
        <time>2021-08-19T11:09:53Z</time>
      </trkpt>
      <trkpt lat="47.586259190" lon="12.797216093">
        <ele>1689.8</ele>
        <time>2021-08-19T11:10:17Z</time>
      </trkpt>
      <trkpt lat="47.586201942" lon="12.797233444">
        <ele>1686.8</ele>
        <time>2021-08-19T11:10:27Z</time>
      </trkpt>
      <trkpt lat="47.585994490" lon="12.797112409">
        <ele>1678.2</ele>
        <time>2021-08-19T11:11:05Z</time>
      </trkpt>
      <trkpt lat="47.585739512" lon="12.797219111">
        <ele>1668.3</ele>
        <time>2021-08-19T11:11:48Z</time>
      </trkpt>
      <trkpt lat="47.585435752" lon="12.797454223">
        <ele>1649.8</ele>
        <time>2021-08-19T11:13:09Z</time>
      </trkpt>
      <trkpt lat="47.585465508" lon="12.797594201">
        <ele>1646.7</ele>
        <time>2021-08-19T11:13:25Z</time>
      </trkpt>
      <trkpt lat="47.585378168" lon="12.797642397">
        <ele>1641.3</ele>
        <time>2021-08-19T11:13:48Z</time>
      </trkpt>
      <trkpt lat="47.585268617" lon="12.797850687">
        <ele>1631.6</ele>
        <time>2021-08-19T11:14:24Z</time>
      </trkpt>
      <trkpt lat="47.585135344" lon="12.797864098">
        <ele>1625.9</ele>
        <time>2021-08-19T11:14:50Z</time>
      </trkpt>
      <trkpt lat="47.584877936" lon="12.798043974">
        <ele>1612.3</ele>
        <time>2021-08-19T11:15:52Z</time>
      </trkpt>
      <trkpt lat="47.584724799" lon="12.798039448">
        <ele>1607.0</ele>
        <time>2021-08-19T11:16:18Z</time>
      </trkpt>
      <trkpt lat="47.584676519" lon="12.798173223">
        <ele>1599.0</ele>
        <time>2021-08-19T11:16:57Z</time>
      </trkpt>
      <trkpt lat="47.584584150" lon="12.798182778">
        <ele>1595.8</ele>
        <time>2021-08-19T11:17:12Z</time>
      </trkpt>
      <trkpt lat="47.584481305" lon="12.798321331">
        <ele>1585.0</ele>
        <time>2021-08-19T11:18:01Z</time>
      </trkpt>
      <trkpt lat="47.584467139" lon="12.798520988">
        <ele>1574.1</ele>
        <time>2021-08-19T11:18:56Z</time>
      </trkpt>
      <trkpt lat="47.584396899" lon="12.798524592">
        <ele>1571.8</ele>
        <time>2021-08-19T11:19:03Z</time>
      </trkpt>
      <trkpt lat="47.584464876" lon="12.798623834">
        <ele>1568.5</ele>
        <time>2021-08-19T11:19:27Z</time>
      </trkpt>
      <trkpt lat="47.584428582" lon="12.798767751">
        <ele>1560.5</ele>
        <time>2021-08-19T11:19:55Z</time>
      </trkpt>
      <trkpt lat="47.584164049" lon="12.798827095">
        <ele>1554.9</ele>
        <time>2021-08-19T11:20:23Z</time>
      </trkpt>
      <trkpt lat="47.583975708" lon="12.798930695">
        <ele>1543.6</ele>
        <time>2021-08-19T11:21:29Z</time>
      </trkpt>
      <trkpt lat="47.583979731" lon="12.799142003">
        <ele>1534.7</ele>
        <time>2021-08-19T11:22:17Z</time>
      </trkpt>
      <trkpt lat="47.583865989" lon="12.799353311">
        <ele>1527.9</ele>
        <time>2021-08-19T11:22:53Z</time>
      </trkpt>
      <trkpt lat="47.583704805" lon="12.799357083">
        <ele>1518.2</ele>
        <time>2021-08-19T11:24:17Z</time>
      </trkpt>
      <trkpt lat="47.583322004" lon="12.799590267">
        <ele>1501.7</ele>
        <time>2021-08-19T11:25:25Z</time>
      </trkpt>
      <trkpt lat="47.583101392" lon="12.799876174">
        <ele>1483.9</ele>
        <time>2021-08-19T11:26:42Z</time>
      </trkpt>
      <trkpt lat="47.582802242" lon="12.800057139">
        <ele>1470.0</ele>
        <time>2021-08-19T11:27:29Z</time>
      </trkpt>
      <trkpt lat="47.582383146" lon="12.800047751">
        <ele>1455.2</ele>
        <time>2021-08-19T11:28:21Z</time>
      </trkpt>
      <trkpt lat="47.582330927" lon="12.799970470">
        <ele>1451.9</ele>
        <time>2021-08-19T11:28:35Z</time>
      </trkpt>
      <trkpt lat="47.582186256" lon="12.799984803">
        <ele>1446.8</ele>
        <time>2021-08-19T11:28:52Z</time>
      </trkpt>
      <trkpt lat="47.581925578" lon="12.799665621">
        <ele>1439.6</ele>
        <time>2021-08-19T11:29:24Z</time>
      </trkpt>
      <trkpt lat="47.581640091" lon="12.799618011">
        <ele>1430.4</ele>
        <time>2021-08-19T11:30:02Z</time>
      </trkpt>
      <trkpt lat="47.581562307" lon="12.799790259">
        <ele>1420.5</ele>
        <time>2021-08-19T11:30:36Z</time>
      </trkpt>
      <trkpt lat="47.581322249" lon="12.800045321">
        <ele>1407.7</ele>
        <time>2021-08-19T11:31:25Z</time>
      </trkpt>
      <trkpt lat="47.581110690" lon="12.800123189">
        <ele>1399.0</ele>
        <time>2021-08-19T11:32:00Z</time>
      </trkpt>
      <trkpt lat="47.581085879" lon="12.800249253">
        <ele>1393.3</ele>
        <time>2021-08-19T11:32:22Z</time>
      </trkpt>
      <trkpt lat="47.580674747" lon="12.800269788">
        <ele>1371.3</ele>
        <time>2021-08-19T11:33:43Z</time>
      </trkpt>
      <trkpt lat="47.580490680" lon="12.800089410">
        <ele>1365.1</ele>
        <time>2021-08-19T11:34:14Z</time>
      </trkpt>
      <trkpt lat="47.580353720" lon="12.800069461">
        <ele>1364.3</ele>
        <time>2021-08-19T11:34:23Z</time>
      </trkpt>
      <trkpt lat="47.580147609" lon="12.800084632">
        <ele>1362.4</ele>
        <time>2021-08-19T11:34:40Z</time>
      </trkpt>
      <trkpt lat="47.579962369" lon="12.800250258">
        <ele>1353.8</ele>
        <time>2021-08-19T11:35:10Z</time>
      </trkpt>
      <trkpt lat="47.579771597" lon="12.800185634">
        <ele>1349.4</ele>
        <time>2021-08-19T11:35:34Z</time>
      </trkpt>
      <trkpt lat="47.579632541" lon="12.800254952">
        <ele>1342.7</ele>
        <time>2021-08-19T11:35:56Z</time>
      </trkpt>
      <trkpt lat="47.579243286" lon="12.799791433">
        <ele>1336.5</ele>
        <time>2021-08-19T11:37:02Z</time>
      </trkpt>
      <trkpt lat="47.578961654" lon="12.799650701">
        <ele>1321.9</ele>
        <time>2021-08-19T11:37:58Z</time>
      </trkpt>
      <trkpt lat="47.578642890" lon="12.799375858">
        <ele>1312.7</ele>
        <time>2021-08-19T11:38:44Z</time>
      </trkpt>
      <trkpt lat="47.578636017" lon="12.799432687">
        <ele>1309.4</ele>
        <time>2021-08-19T11:39:01Z</time>
      </trkpt>
      <trkpt lat="47.578557730" lon="12.799402345">
        <ele>1306.3</ele>
        <time>2021-08-19T11:39:16Z</time>
      </trkpt>
      <trkpt lat="47.578133941" lon="12.798865233">
        <ele>1286.0</ele>
        <time>2021-08-19T11:40:51Z</time>
      </trkpt>
      <trkpt lat="47.577883825" lon="12.799503263">
        <ele>1264.2</ele>
        <time>2021-08-19T11:42:20Z</time>
      </trkpt>
      <trkpt lat="47.577726245" lon="12.799632344">
        <ele>1258.0</ele>
        <time>2021-08-19T11:42:49Z</time>
      </trkpt>
      <trkpt lat="47.577610575" lon="12.800157387">
        <ele>1242.4</ele>
        <time>2021-08-19T11:43:58Z</time>
      </trkpt>
      <trkpt lat="47.577674696" lon="12.800519820">
        <ele>1227.7</ele>
        <time>2021-08-19T11:44:53Z</time>
      </trkpt>
      <trkpt lat="47.578016259" lon="12.801221302">
        <ele>1213.6</ele>
        <time>2021-08-19T11:46:17Z</time>
      </trkpt>
      <trkpt lat="47.578041656" lon="12.801704183">
        <ele>1201.1</ele>
        <time>2021-08-19T11:47:16Z</time>
      </trkpt>
      <trkpt lat="47.577999411" lon="12.801766377">
        <ele>1197.6</ele>
        <time>2021-08-19T11:47:30Z</time>
      </trkpt>
      <trkpt lat="47.577881394" lon="12.801738884">
        <ele>1195.9</ele>
        <time>2021-08-19T11:47:51Z</time>
      </trkpt>
      <trkpt lat="47.577809477" lon="12.801552052">
        <ele>1190.1</ele>
        <time>2021-08-19T11:48:26Z</time>
      </trkpt>
      <trkpt lat="47.577593140" lon="12.801552806">
        <ele>1180.5</ele>
        <time>2021-08-19T11:49:17Z</time>
      </trkpt>
      <trkpt lat="47.577594984" lon="12.801835444">
        <ele>1167.6</ele>
        <time>2021-08-19T11:50:14Z</time>
      </trkpt>
      <trkpt lat="47.577498509" lon="12.801922113">
        <ele>1161.6</ele>
        <time>2021-08-19T11:50:48Z</time>
      </trkpt>
      <trkpt lat="47.577490546" lon="12.802221179">
        <ele>1147.0</ele>
        <time>2021-08-19T11:52:00Z</time>
      </trkpt>
      <trkpt lat="47.577433633" lon="12.802317152">
        <ele>1137.8</ele>
        <time>2021-08-19T11:52:43Z</time>
      </trkpt>
      <trkpt lat="47.577459617" lon="12.802538099">
        <ele>1125.7</ele>
        <time>2021-08-19T11:53:46Z</time>
      </trkpt>
      <trkpt lat="47.577334475" lon="12.802765332">
        <ele>1112.5</ele>
        <time>2021-08-19T11:55:01Z</time>
      </trkpt>
      <trkpt lat="47.577305054" lon="12.802952165">
        <ele>1107.6</ele>
        <time>2021-08-19T11:55:29Z</time>
      </trkpt>
      <trkpt lat="47.577182343" lon="12.803008072">
        <ele>1101.7</ele>
        <time>2021-08-19T11:55:55Z</time>
      </trkpt>
      <trkpt lat="47.576938346" lon="12.802944286">
        <ele>1089.0</ele>
        <time>2021-08-19T11:56:52Z</time>
      </trkpt>
      <trkpt lat="47.576924600" lon="12.802809253">
        <ele>1085.6</ele>
        <time>2021-08-19T11:57:08Z</time>
      </trkpt>
      <trkpt lat="47.576625198" lon="12.802608926">
        <ele>1073.2</ele>
        <time>2021-08-19T11:58:11Z</time>
      </trkpt>
      <trkpt lat="47.576146172" lon="12.802704899">
        <ele>1047.3</ele>
        <time>2021-08-19T12:00:21Z</time>
      </trkpt>
      <trkpt lat="47.576089762" lon="12.802634491">
        <ele>1046.4</ele>
        <time>2021-08-19T12:00:25Z</time>
      </trkpt>
      <trkpt lat="47.576098563" lon="12.802474732">
        <ele>1038.2</ele>
        <time>2021-08-19T12:00:54Z</time>
      </trkpt>
      <trkpt lat="47.575767562" lon="12.802357804">
        <ele>1032.5</ele>
        <time>2021-08-19T12:01:52Z</time>
      </trkpt>
      <trkpt lat="47.575684581" lon="12.802405832">
        <ele>1030.4</ele>
        <time>2021-08-19T12:02:00Z</time>
      </trkpt>
      <trkpt lat="47.575304881" lon="12.802100061">
        <ele>1020.2</ele>
        <time>2021-08-19T12:02:53Z</time>
      </trkpt>
      <trkpt lat="47.575292727" lon="12.802177593">
        <ele>1016.6</ele>
        <time>2021-08-19T12:03:04Z</time>
      </trkpt>
      <trkpt lat="47.575219134" lon="12.802138785">
        <ele>1013.6</ele>
        <time>2021-08-19T12:03:14Z</time>
      </trkpt>
      <trkpt lat="47.575234054" lon="12.802311284">
        <ele>1008.1</ele>
        <time>2021-08-19T12:03:34Z</time>
      </trkpt>
      <trkpt lat="47.575101284" lon="12.802314386">
        <ele>1001.9</ele>
        <time>2021-08-19T12:03:56Z</time>
      </trkpt>
      <trkpt lat="47.575011011" lon="12.802542625">
        <ele>991.4</ele>
        <time>2021-08-19T12:04:23Z</time>
      </trkpt>
      <trkpt lat="47.575053759" lon="12.802808750">
        <ele>984.3</ele>
        <time>2021-08-19T12:04:47Z</time>
      </trkpt>
      <trkpt lat="47.574917888" lon="12.803012263">
        <ele>978.8</ele>
        <time>2021-08-19T12:05:06Z</time>
      </trkpt>
      <trkpt lat="47.574938256" lon="12.803141177">
        <ele>974.7</ele>
        <time>2021-08-19T12:05:20Z</time>
      </trkpt>
      <trkpt lat="47.574784700" lon="12.803403614">
        <ele>969.2</ele>
        <time>2021-08-19T12:06:02Z</time>
      </trkpt>
      <trkpt lat="47.574865501" lon="12.803419875">
        <ele>968.1</ele>
        <time>2021-08-19T12:07:00Z</time>
      </trkpt>
      <trkpt lat="47.574820742" lon="12.803396657">
        <ele>967.5</ele>
        <time>2021-08-19T12:07:14Z</time>
      </trkpt>
      <trkpt lat="47.575292978" lon="12.804305088">
        <ele>966.5</ele>
        <time>2021-08-19T12:08:30Z</time>
      </trkpt>
      <trkpt lat="47.575351568" lon="12.805045797">
        <ele>964.9</ele>
        <time>2021-08-19T12:09:05Z</time>
      </trkpt>
      <trkpt lat="47.575648036" lon="12.805790864">
        <ele>958.1</ele>
        <time>2021-08-19T12:10:09Z</time>
      </trkpt>
      <trkpt lat="47.575615346" lon="12.805826236">
        <ele>957.0</ele>
        <time>2021-08-19T12:11:30Z</time>
      </trkpt>
      <trkpt lat="47.575706374" lon="12.805743338">
        <ele>955.9</ele>
        <time>2021-08-19T12:12:35Z</time>
      </trkpt>
      <trkpt lat="47.575624566" lon="12.805697238">
        <ele>956.0</ele>
        <time>2021-08-19T12:13:41Z</time>
      </trkpt>
      <trkpt lat="47.575693969" lon="12.805744428">
        <ele>956.5</ele>
        <time>2021-08-19T12:13:59Z</time>
      </trkpt>
      <trkpt lat="47.575678295" lon="12.805796731">
        <ele>954.0</ele>
        <time>2021-08-19T12:15:17Z</time>
      </trkpt>
      <trkpt lat="47.576717734" lon="12.806952177">
        <ele>951.5</ele>
        <time>2021-08-19T12:15:35Z</time>
      </trkpt>
      <trkpt lat="47.578873728" lon="12.808369137">
        <ele>947.9</ele>
        <time>2021-08-19T12:15:57Z</time>
      </trkpt>
      <trkpt lat="47.579408828" lon="12.809048993">
        <ele>947.4</ele>
        <time>2021-08-19T12:16:04Z</time>
      </trkpt>
      <trkpt lat="47.579849633" lon="12.810158422">
        <ele>947.2</ele>
        <time>2021-08-19T12:16:30Z</time>
      </trkpt>
      <trkpt lat="47.580185328" lon="12.810752699">
        <ele>945.5</ele>
        <time>2021-08-19T12:16:39Z</time>
      </trkpt>
      <trkpt lat="47.580373501" lon="12.811984420">
        <ele>939.0</ele>
        <time>2021-08-19T12:18:24Z</time>
      </trkpt>
      <trkpt lat="47.580615822" lon="12.812763602">
        <ele>930.0</ele>
        <time>2021-08-19T12:18:32Z</time>
      </trkpt>
      <trkpt lat="47.580798967" lon="12.813716373">
        <ele>918.6</ele>
        <time>2021-08-19T12:18:41Z</time>
      </trkpt>
      <trkpt lat="47.580819754" lon="12.814218532">
        <ele>913.8</ele>
        <time>2021-08-19T12:18:46Z</time>
      </trkpt>
      <trkpt lat="47.580702910" lon="12.815082120">
        <ele>906.0</ele>
        <time>2021-08-19T12:18:54Z</time>
      </trkpt>
      <trkpt lat="47.580818497" lon="12.815839341">
        <ele>899.6</ele>
        <time>2021-08-19T12:19:00Z</time>
      </trkpt>
      <trkpt lat="47.581604216" lon="12.818718860">
        <ele>875.2</ele>
        <time>2021-08-19T12:19:24Z</time>
      </trkpt>
      <trkpt lat="47.581853829" lon="12.819246668">
        <ele>871.5</ele>
        <time>2021-08-19T12:19:30Z</time>
      </trkpt>
      <trkpt lat="47.582599651" lon="12.820111513">
        <ele>864.1</ele>
        <time>2021-08-19T12:19:40Z</time>
      </trkpt>
      <trkpt lat="47.583958525" lon="12.822128953">
        <ele>857.0</ele>
        <time>2021-08-19T12:20:05Z</time>
      </trkpt>
      <trkpt lat="47.584083164" lon="12.822876368">
        <ele>855.3</ele>
        <time>2021-08-19T12:20:18Z</time>
      </trkpt>
      <trkpt lat="47.584006134" lon="12.822939316">
        <ele>858.2</ele>
        <time>2021-08-19T12:20:37Z</time>
      </trkpt>
      <trkpt lat="47.584548025" lon="12.824813928">
        <ele>854.5</ele>
        <time>2021-08-19T12:21:03Z</time>
      </trkpt>
      <trkpt lat="47.585869180" lon="12.826415291">
        <ele>846.2</ele>
        <time>2021-08-19T12:21:21Z</time>
      </trkpt>
      <trkpt lat="47.587908832" lon="12.828117237">
        <ele>840.9</ele>
        <time>2021-08-19T12:21:47Z</time>
      </trkpt>
      <trkpt lat="47.588503948" lon="12.828841684">
        <ele>839.3</ele>
        <time>2021-08-19T12:21:55Z</time>
      </trkpt>
      <trkpt lat="47.589002503" lon="12.830023617">
        <ele>836.5</ele>
        <time>2021-08-19T12:22:05Z</time>
      </trkpt>
      <trkpt lat="47.589793084" lon="12.831056351">
        <ele>833.9</ele>
        <time>2021-08-19T12:22:17Z</time>
      </trkpt>
      <trkpt lat="47.590171024" lon="12.831377797">
        <ele>832.8</ele>
        <time>2021-08-19T12:22:23Z</time>
      </trkpt>
      <trkpt lat="47.591612544" lon="12.831939887">
        <ele>830.7</ele>
        <time>2021-08-19T12:22:42Z</time>
      </trkpt>
      <trkpt lat="47.593147690" lon="12.833697405">
        <ele>826.4</ele>
        <time>2021-08-19T12:23:06Z</time>
      </trkpt>
      <trkpt lat="47.594415452" lon="12.835463556">
        <ele>822.9</ele>
        <time>2021-08-19T12:23:34Z</time>
      </trkpt>
      <trkpt lat="47.594731450" lon="12.836250281">
        <ele>821.8</ele>
        <time>2021-08-19T12:23:42Z</time>
      </trkpt>
      <trkpt lat="47.594869165" lon="12.836860064">
        <ele>821.0</ele>
        <time>2021-08-19T12:23:47Z</time>
      </trkpt>
      <trkpt lat="47.596136173" lon="12.838523118">
        <ele>817.8</ele>
        <time>2021-08-19T12:24:04Z</time>
      </trkpt>
      <trkpt lat="47.596972100" lon="12.839774955">
        <ele>814.8</ele>
        <time>2021-08-19T12:24:16Z</time>
      </trkpt>
      <trkpt lat="47.597666206" lon="12.841077167">
        <ele>812.7</ele>
        <time>2021-08-19T12:24:29Z</time>
      </trkpt>
      <trkpt lat="47.598791560" lon="12.842696887">
        <ele>812.6</ele>
        <time>2021-08-19T12:25:16Z</time>
      </trkpt>
      <trkpt lat="47.598887365" lon="12.842898974">
        <ele>812.5</ele>
        <time>2021-08-19T12:25:41Z</time>
      </trkpt>
      <trkpt lat="47.598854592" lon="12.842993606">
        <ele>812.2</ele>
        <time>2021-08-19T12:25:56Z</time>
      </trkpt>
      <trkpt lat="47.599127339" lon="12.843387052">
        <ele>810.7</ele>
        <time>2021-08-19T12:27:48Z</time>
      </trkpt>
    </trkseg>
  </trk>
</gpx>
